createdAt,value
2023-05-17T00:01:28.588Z,47.78
2023-05-17T00:03:56.633Z,47.65
2023-05-17T00:06:24.718Z,47.86
2023-05-17T00:08:52.719Z,48.15
2023-05-17T00:11:20.678Z,48.05
2023-05-17T00:13:48.647Z,48.24
2023-05-17T00:16:16.631Z,48.21
2023-05-17T00:18:46.222Z,48.08
2023-05-17T00:21:14.347Z,48.19
2023-05-17T00:23:42.485Z,48.17
2023-05-17T00:26:10.472Z,48.06
2023-05-17T00:28:38.450Z,48.12
2023-05-17T00:31:06.463Z,48.04
2023-05-17T00:33:34.480Z,48.14
2023-05-17T00:36:03.910Z,48.24
2023-05-17T00:38:31.849Z,48.32
2023-05-17T00:40:59.894Z,48.04
2023-05-17T00:43:27.876Z,47.98
2023-05-17T00:45:55.854Z,48.00
2023-05-17T00:48:25.727Z,48.22
2023-05-17T00:50:53.979Z,48.17
2023-05-17T00:53:23.355Z,48.11
2023-05-17T00:55:51.486Z,48.00
2023-05-17T00:58:19.477Z,48.05
2023-05-17T01:00:47.441Z,48.09
2023-05-17T01:03:18.801Z,48.33
2023-05-17T01:05:49.758Z,48.11
2023-05-17T01:08:17.802Z,48.39
2023-05-17T01:10:59.249Z,48.29
2023-05-17T01:13:29.297Z,48.35
2023-05-17T01:16:00.265Z,48.45
2023-05-17T01:18:31.661Z,48.38
2023-05-17T01:20:59.987Z,48.40
2023-05-17T01:23:42.230Z,48.51
2023-05-17T01:26:16.237Z,48.49
2023-05-17T01:28:47.388Z,48.74
2023-05-17T01:31:15.345Z,48.32
2023-05-17T01:33:43.462Z,48.53
2023-05-17T01:36:11.504Z,48.59
2023-05-17T01:38:39.470Z,48.48
2023-05-17T01:41:11.994Z,48.82
2023-05-17T01:43:43.167Z,48.85
2023-05-17T01:46:15.191Z,48.97
2023-05-17T01:48:46.102Z,48.91
2023-05-17T01:51:16.110Z,48.85
2023-05-17T01:53:46.852Z,48.92
2023-05-17T01:56:17.714Z,48.86
2023-05-17T01:58:46.833Z,48.80
2023-05-17T02:01:16.351Z,48.97
2023-05-17T02:03:44.260Z,49.07
2023-05-17T02:06:12.813Z,48.87
2023-05-17T02:08:40.837Z,48.84
2023-05-17T02:11:08.871Z,48.97
2023-05-17T02:13:36.770Z,49.04
2023-05-17T02:16:04.872Z,49.18
2023-05-17T02:18:35.501Z,49.64
2023-05-17T02:21:03.657Z,49.42
2023-05-17T02:23:31.600Z,49.61
2023-05-17T02:25:59.498Z,49.60
2023-05-17T02:28:28.366Z,49.86
2023-05-17T02:30:56.618Z,49.69
2023-05-17T02:33:24.703Z,49.85
2023-05-17T02:35:54.101Z,49.73
2023-05-17T02:38:22.065Z,49.72
2023-05-17T02:40:49.935Z,49.73
2023-05-17T02:43:17.840Z,49.94
2023-05-17T02:45:45.835Z,49.91
2023-05-17T02:48:13.758Z,49.90
2023-05-17T02:50:41.661Z,50.00
2023-05-17T02:53:11.494Z,49.84
2023-05-17T02:55:45.492Z,49.99
2023-05-17T02:58:13.431Z,49.91
2023-05-17T03:00:41.322Z,50.02
2023-05-17T03:03:09.346Z,50.02
2023-05-17T03:05:37.260Z,50.00
2023-05-17T03:08:05.296Z,50.03
2023-05-17T03:10:34.764Z,50.05
2023-05-17T03:13:02.946Z,50.01
2023-05-17T03:15:31.005Z,50.14
2023-05-17T03:20:27.118Z,50.28
2023-05-17T03:22:55.051Z,50.31
2023-05-17T03:25:23.031Z,50.31
2023-05-17T03:27:52.380Z,50.48
2023-05-17T03:30:20.474Z,50.14
2023-05-17T03:32:48.511Z,50.42
2023-05-17T03:35:16.434Z,50.36
2023-05-17T03:37:44.411Z,50.36
2023-05-17T03:40:12.872Z,50.41
2023-05-17T03:42:41.543Z,50.28
2023-05-17T03:45:11.762Z,50.38
2023-05-17T03:47:39.804Z,50.28
2023-05-17T03:50:08.916Z,50.59
2023-05-17T03:52:36.865Z,50.53
2023-05-17T03:55:05.238Z,50.50
2023-05-17T03:57:33.150Z,50.74
2023-05-17T04:00:01.062Z,50.90
2023-05-17T04:02:30.345Z,51.07
2023-05-17T04:04:58.276Z,51.16
2023-05-17T04:07:26.284Z,51.11
2023-05-17T04:09:54.476Z,51.04
2023-05-17T04:12:22.411Z,51.00
2023-05-17T04:14:50.402Z,51.00
2023-05-17T04:17:18.316Z,51.00
2023-05-17T04:19:47.700Z,50.91
2023-05-17T04:22:15.617Z,50.81
2023-05-17T04:24:43.863Z,50.93
2023-05-17T04:27:11.750Z,51.04
2023-05-17T04:29:40.979Z,50.99
2023-05-17T04:32:09.940Z,51.15
2023-05-17T04:34:37.819Z,51.14
2023-05-17T04:37:07.607Z,51.07
2023-05-17T04:39:35.835Z,51.16
2023-05-17T04:42:03.890Z,51.13
2023-05-17T04:44:31.776Z,51.21
2023-05-17T04:46:59.667Z,51.09
2023-05-17T04:49:28.406Z,51.13
2023-05-17T04:51:56.531Z,51.23
2023-05-17T04:54:26.075Z,51.27
2023-05-17T04:56:56.837Z,51.35
2023-05-17T04:59:25.161Z,51.27
2023-05-17T05:01:53.053Z,51.32
2023-05-17T05:04:21.197Z,51.34
2023-05-17T05:06:49.420Z,51.20
2023-05-17T05:09:17.522Z,51.41
2023-05-17T05:11:46.969Z,51.01
2023-05-17T05:14:15.212Z,51.28
2023-05-17T05:16:47.831Z,51.12
2023-05-17T05:19:16.959Z,51.27
2023-05-17T05:21:51.935Z,51.38
2023-05-17T05:24:20.120Z,51.16
2023-05-17T05:26:52.100Z,51.12
2023-05-17T05:29:20.030Z,51.11
2023-05-17T05:31:48.022Z,51.26
2023-05-17T05:34:15.915Z,51.02
2023-05-17T05:36:44.181Z,50.98
2023-05-17T05:39:12.670Z,51.16
2023-05-17T05:41:40.612Z,50.83
2023-05-17T05:44:10.007Z,50.95
2023-05-17T05:46:37.908Z,50.87
2023-05-17T05:49:05.887Z,50.99
2023-05-17T05:51:34.143Z,50.77
2023-05-17T05:54:02.180Z,50.75
2023-05-17T05:56:30.082Z,50.70
2023-05-17T05:58:58.600Z,50.90
2023-05-17T06:01:28.893Z,50.91
2023-05-17T06:03:56.953Z,51.01
2023-05-17T06:06:24.926Z,51.00
2023-05-17T06:08:59.444Z,50.86
2023-05-17T06:11:27.731Z,51.06
2023-05-17T06:13:55.830Z,50.87
2023-05-17T06:16:23.839Z,50.91
2023-05-17T06:18:53.199Z,51.05
2023-05-17T06:21:21.363Z,51.00
2023-05-17T06:23:49.280Z,51.36
2023-05-17T06:26:17.321Z,51.07
2023-05-17T06:28:45.205Z,51.42
2023-05-17T06:31:13.219Z,51.20
2023-05-17T06:33:41.390Z,51.11
2023-05-17T06:36:11.134Z,51.38
2023-05-17T06:38:39.052Z,51.35
2023-05-17T06:41:07.130Z,51.19
2023-05-17T06:43:36.487Z,51.34
2023-05-17T06:46:05.733Z,51.33
2023-05-17T06:48:33.761Z,51.11
2023-05-17T06:51:01.886Z,50.99
2023-05-17T06:53:31.222Z,50.99
2023-05-17T06:55:59.476Z,51.19
2023-05-17T06:58:27.747Z,50.69
2023-05-17T07:00:55.896Z,50.99
2023-05-17T07:03:24.059Z,50.99
2023-05-17T07:05:52.385Z,50.76
2023-05-17T07:08:21.164Z,50.84
2023-05-17T07:10:53.304Z,50.49
2023-05-17T07:13:21.682Z,50.59
2023-05-17T07:15:49.979Z,50.27
2023-05-17T07:18:18.188Z,50.25
2023-05-17T07:20:46.211Z,50.10
2023-05-17T07:23:14.729Z,50.38
2023-05-17T07:25:43.274Z,49.87
2023-05-17T07:28:12.940Z,49.79
2023-05-17T07:30:46.269Z,50.08
2023-05-17T07:33:15.181Z,50.06
2023-05-17T07:35:43.188Z,49.99
2023-05-17T07:38:11.835Z,49.72
2023-05-17T07:40:39.962Z,49.60
2023-05-17T07:43:08.037Z,49.32
2023-05-17T07:45:37.780Z,49.48
2023-05-17T07:48:06.384Z,49.26
2023-05-17T07:50:34.501Z,49.27
2023-05-17T07:53:02.879Z,49.00
2023-05-17T07:55:31.389Z,49.35
2023-05-17T07:58:01.206Z,49.21
2023-05-17T08:00:29.520Z,49.36
2023-05-17T08:02:59.142Z,49.15
2023-05-17T08:05:27.788Z,48.92
2023-05-17T08:07:59.608Z,49.00
2023-05-17T08:10:28.107Z,49.28
2023-05-17T08:12:56.392Z,48.63
2023-05-17T08:15:24.455Z,48.49
2023-05-17T08:17:52.948Z,48.36
2023-05-17T08:20:22.799Z,48.29
2023-05-17T08:22:51.069Z,48.51
2023-05-17T08:25:19.274Z,48.62
2023-05-17T08:27:47.419Z,48.13
2023-05-17T08:30:25.293Z,48.18
2023-05-17T08:32:57.233Z,48.06
2023-05-17T08:35:29.115Z,47.99
2023-05-17T08:37:57.306Z,47.89
2023-05-17T08:40:25.543Z,47.25
2023-05-17T08:42:53.938Z,47.63
2023-05-17T08:45:24.645Z,47.25
2023-05-17T08:47:54.575Z,47.27
2023-05-17T08:50:22.708Z,47.02
2023-05-17T08:52:52.766Z,47.04
2023-05-17T08:55:20.925Z,46.40
2023-05-17T08:57:49.635Z,45.95
2023-05-17T09:00:19.038Z,45.69
2023-05-17T09:02:47.434Z,44.85
2023-05-17T09:05:16.597Z,44.67
2023-05-17T09:07:45.128Z,44.76
2023-05-17T09:10:17.580Z,44.87
2023-05-17T09:12:45.966Z,45.01
2023-05-17T09:15:16.351Z,45.04
2023-05-17T09:17:44.496Z,44.85
2023-05-17T09:20:12.935Z,44.82
2023-05-17T09:22:41.535Z,44.61
2023-05-17T09:25:11.744Z,44.71
2023-05-17T09:27:41.600Z,44.74
2023-05-17T09:30:16.267Z,44.44
2023-05-17T09:35:29.680Z,44.07
2023-05-17T09:37:58.406Z,43.40
2023-05-17T09:40:26.831Z,43.21
2023-05-17T09:42:56.220Z,43.12
2023-05-17T09:45:24.760Z,42.96
2023-05-17T09:47:53.101Z,42.53
2023-05-17T09:50:22.041Z,42.10
2023-05-17T09:52:51.906Z,41.90
2023-05-17T09:55:20.181Z,41.09
2023-05-17T09:57:48.757Z,41.51
2023-05-17T10:00:19.735Z,41.15
2023-05-17T10:02:48.243Z,40.98
2023-05-17T10:05:16.718Z,40.72
2023-05-17T10:07:44.945Z,40.73
2023-05-17T10:10:16.411Z,40.37
2023-05-17T10:12:44.362Z,40.24
2023-05-17T10:15:12.410Z,39.92
2023-05-17T10:17:43.955Z,39.52
2023-05-17T10:20:14.506Z,39.47
2023-05-17T10:22:42.579Z,39.27
2023-05-17T10:25:11.564Z,39.41
2023-05-17T10:27:39.504Z,38.96
2023-05-17T10:30:09.231Z,39.01
2023-05-17T10:32:37.276Z,38.89
2023-05-17T10:35:12.057Z,38.68
2023-05-17T10:37:41.227Z,38.65
2023-05-17T10:40:14.447Z,38.66
2023-05-17T10:42:42.705Z,39.02
2023-05-17T10:45:11.711Z,38.86
2023-05-17T10:47:44.302Z,38.36
2023-05-17T10:50:17.251Z,38.21
2023-05-17T10:52:49.062Z,37.96
2023-05-17T10:55:20.305Z,37.81
2023-05-17T10:58:18.301Z,37.68
2023-05-17T11:00:48.330Z,37.89
2023-05-17T11:03:17.975Z,37.64
2023-05-17T11:06:23.306Z,37.34
2023-05-17T11:09:09.567Z,37.29
2023-05-17T11:11:37.647Z,37.36
2023-05-17T11:14:06.373Z,37.14
2023-05-17T11:16:37.085Z,36.83
2023-05-17T11:19:08.662Z,36.68
2023-05-17T11:21:39.538Z,36.61
2023-05-17T11:24:08.774Z,36.68
2023-05-17T11:26:38.822Z,37.08
2023-05-17T11:29:09.102Z,37.82
2023-05-17T11:31:37.662Z,38.10
2023-05-17T11:34:05.810Z,38.26
2023-05-17T11:36:35.385Z,38.09
2023-05-17T11:39:14.774Z,37.39
2023-05-17T11:41:49.672Z,36.93
2023-05-17T11:44:19.410Z,36.80
2023-05-17T11:46:47.327Z,36.21
2023-05-17T11:49:34.052Z,35.88
2023-05-17T11:52:04.040Z,35.58
2023-05-17T11:54:33.634Z,35.16
2023-05-17T11:57:02.926Z,34.39
2023-05-17T11:59:31.407Z,34.21
2023-05-17T12:02:01.280Z,34.15
2023-05-17T12:04:30.622Z,34.05
2023-05-17T12:07:04.024Z,33.26
2023-05-17T12:09:33.295Z,33.57
2023-05-17T12:12:05.188Z,32.33
2023-05-17T12:14:34.097Z,31.16
2023-05-17T12:17:02.647Z,31.58
2023-05-17T12:19:33.929Z,30.98
2023-05-17T12:22:12.592Z,30.78
2023-05-17T12:24:43.147Z,30.55
2023-05-17T12:27:11.658Z,29.63
2023-05-17T12:29:41.291Z,29.46
2023-05-17T12:32:10.008Z,30.35
2023-05-17T12:34:38.290Z,30.30
2023-05-17T12:37:10.436Z,30.38
2023-05-17T12:39:38.654Z,29.72
2023-05-17T12:42:08.772Z,29.80
2023-05-17T12:44:36.805Z,29.25
2023-05-17T12:47:05.075Z,28.75
2023-05-17T12:49:33.027Z,28.14
2023-05-17T12:52:08.226Z,27.88
2023-05-17T12:54:39.110Z,28.42
2023-05-17T12:57:16.248Z,28.17
2023-05-17T12:59:48.999Z,27.95
2023-05-17T13:02:20.703Z,27.31
2023-05-17T13:04:48.839Z,27.05
2023-05-17T13:07:22.839Z,26.33
2023-05-17T13:21:38.134Z,24.51
2023-05-17T13:24:06.243Z,24.83
2023-05-17T13:26:34.094Z,24.92
2023-05-17T13:29:01.931Z,24.28
2023-05-17T13:31:29.803Z,24.96
2023-05-17T13:33:57.751Z,25.11
2023-05-17T13:36:25.758Z,25.04
2023-05-17T13:38:56.769Z,24.96
2023-05-17T13:41:24.977Z,25.09
2023-05-17T13:43:52.816Z,24.86
2023-05-17T13:46:20.707Z,24.10
2023-05-17T13:48:48.808Z,24.05
2023-05-17T13:51:16.723Z,23.74
2023-05-17T13:53:44.621Z,23.92
2023-05-17T13:56:13.818Z,24.20
2023-05-17T13:58:41.634Z,24.01
2023-05-17T14:01:09.523Z,23.94
2023-05-17T14:03:37.490Z,24.18
2023-05-17T14:06:06.496Z,24.60
2023-05-17T14:08:36.823Z,24.69
2023-05-17T14:11:05.303Z,24.47
2023-05-17T14:13:34.977Z,24.12
2023-05-17T14:16:02.933Z,24.34
2023-05-17T14:18:32.926Z,24.40
2023-05-17T14:21:01.287Z,23.98
2023-05-17T14:23:29.240Z,24.32
2023-05-17T14:25:57.794Z,24.59
2023-05-17T14:28:25.909Z,24.31
2023-05-17T14:30:55.210Z,24.57
2023-05-17T14:33:23.257Z,24.14
2023-05-17T14:35:51.753Z,24.04
2023-05-17T14:38:20.485Z,24.03
2023-05-17T14:40:48.399Z,24.11
2023-05-17T14:43:16.451Z,23.84
2023-05-17T14:45:44.416Z,24.23
2023-05-17T14:48:13.798Z,23.57
2023-05-17T14:50:41.863Z,23.63
2023-05-17T14:53:09.840Z,23.88
2023-05-17T14:55:38.200Z,23.83
2023-05-17T14:58:07.061Z,23.91
2023-05-17T15:00:36.259Z,24.13
2023-05-17T15:03:05.048Z,24.04
2023-05-17T15:05:35.057Z,23.94
2023-05-17T15:08:03.780Z,24.02
2023-05-17T15:10:32.838Z,24.08
2023-05-17T15:13:01.804Z,24.01
2023-05-17T15:15:30.896Z,23.79
2023-05-17T15:18:00.493Z,23.77
2023-05-17T15:20:29.697Z,23.64
2023-05-17T15:22:59.995Z,23.88
2023-05-17T15:25:28.992Z,23.45
2023-05-17T15:27:57.919Z,23.55
2023-05-17T15:30:27.907Z,23.59
2023-05-17T15:32:57.587Z,23.45
2023-05-17T15:35:27.591Z,23.70
2023-05-17T15:37:56.769Z,24.13
2023-05-17T15:40:26.919Z,24.00
2023-05-17T15:42:55.714Z,23.79
2023-05-17T15:45:24.284Z,23.41
2023-05-17T15:47:53.895Z,23.53
2023-05-17T15:50:22.776Z,23.47
2023-05-17T15:52:54.802Z,23.36
2023-05-17T15:55:23.726Z,23.33
2023-05-17T15:57:53.976Z,23.45
2023-05-17T16:00:23.155Z,23.52
2023-05-17T16:02:51.344Z,23.87
2023-05-17T16:05:19.659Z,23.65
2023-05-17T16:07:48.261Z,23.76
2023-05-17T16:10:16.649Z,23.60
2023-05-17T16:12:45.063Z,23.12
2023-05-17T16:15:14.805Z,23.49
2023-05-17T16:17:42.892Z,23.58
2023-05-17T16:20:12.271Z,24.10
2023-05-17T16:22:43.341Z,24.48
2023-05-17T16:25:11.913Z,24.85
2023-05-17T16:27:39.967Z,24.61
2023-05-17T16:30:09.319Z,24.63
2023-05-17T16:32:38.680Z,24.81
2023-05-17T16:35:07.236Z,24.64
2023-05-17T16:37:35.171Z,24.55
2023-05-17T16:40:03.446Z,24.32
2023-05-17T16:42:31.558Z,24.53
2023-05-17T16:44:59.669Z,24.81
2023-05-17T16:47:28.088Z,25.02
2023-05-17T16:49:57.712Z,25.27
2023-05-17T16:52:25.847Z,25.85
2023-05-17T16:54:53.907Z,25.80
2023-05-17T16:57:21.873Z,25.86
2023-05-17T16:59:49.827Z,26.19
2023-05-17T17:02:17.859Z,25.64
2023-05-17T17:04:45.860Z,26.02
2023-05-17T17:07:15.171Z,24.98
2023-05-17T17:09:43.069Z,25.29
2023-05-17T17:12:23.640Z,25.39
2023-05-17T17:14:52.851Z,25.70
2023-05-17T17:17:20.810Z,25.91
2023-05-17T17:19:48.931Z,25.86
2023-05-17T17:22:18.298Z,26.12
2023-05-17T17:24:46.251Z,26.43
2023-05-17T17:27:14.155Z,26.29
2023-05-17T17:29:42.089Z,26.72
2023-05-17T17:32:10.177Z,27.30
2023-05-17T17:34:38.767Z,27.74
2023-05-17T17:37:07.037Z,29.10
2023-05-17T17:39:36.332Z,29.33
2023-05-17T17:42:04.369Z,30.50
2023-05-17T17:44:32.363Z,31.22
2023-05-17T17:47:00.418Z,31.73
2023-05-17T17:49:28.423Z,32.23
2023-05-17T17:51:58.068Z,33.13
2023-05-17T17:54:26.134Z,33.63
2023-05-17T17:56:55.953Z,34.16
2023-05-17T17:59:23.890Z,34.75
2023-05-17T18:01:51.900Z,35.87
2023-05-17T18:04:19.982Z,36.12
2023-05-17T18:06:48.564Z,36.43
2023-05-17T18:09:16.515Z,36.69
2023-05-17T18:11:44.403Z,36.57
2023-05-17T18:14:15.384Z,36.70
2023-05-17T18:16:43.407Z,36.50
2023-05-17T18:19:11.521Z,36.36
2023-05-17T18:21:39.466Z,36.27
2023-05-17T18:24:08.122Z,35.82
2023-05-17T18:26:36.100Z,35.88
2023-05-17T18:29:04.099Z,36.13
2023-05-17T18:31:33.457Z,36.61
2023-05-17T18:34:01.338Z,37.11
2023-05-17T18:36:29.298Z,37.46
2023-05-17T18:38:58.714Z,37.93
2023-05-17T18:41:27.125Z,38.27
2023-05-17T18:43:55.935Z,38.70
2023-05-17T18:46:23.868Z,39.05
2023-05-17T18:48:53.175Z,39.96
2023-05-17T18:51:21.102Z,40.23
2023-05-17T18:53:48.999Z,40.80
2023-05-17T18:56:22.699Z,41.10
2023-05-17T18:58:52.003Z,41.41
2023-05-17T19:01:20.055Z,42.13
2023-05-17T19:03:48.153Z,42.36
2023-05-17T19:06:17.865Z,42.90
2023-05-17T19:08:46.201Z,42.89
2023-05-17T19:11:14.246Z,43.22
2023-05-17T19:13:42.277Z,43.35
2023-05-17T19:16:10.198Z,43.55
2023-05-17T19:18:38.136Z,43.94
2023-05-17T19:21:06.161Z,44.19
2023-05-17T19:23:36.082Z,44.29
2023-05-17T19:26:04.054Z,44.30
2023-05-17T19:28:35.851Z,44.46
2023-05-17T19:31:03.873Z,44.72
2023-05-17T19:33:34.098Z,44.88
2023-05-17T19:36:02.291Z,45.01
2023-05-17T19:38:30.155Z,45.22
2023-05-17T19:40:59.734Z,45.11
2023-05-17T19:43:28.243Z,45.37
2023-05-17T19:45:56.187Z,45.39
2023-05-17T19:48:25.234Z,45.66
2023-05-17T19:50:56.136Z,45.50
2023-05-17T19:53:24.759Z,45.87
2023-05-17T19:55:54.794Z,45.54
2023-05-17T19:58:25.421Z,45.99
2023-05-17T20:00:53.363Z,45.78
2023-05-17T20:03:22.475Z,46.01
2023-05-17T20:05:50.921Z,46.37
2023-05-17T20:08:18.843Z,46.52
2023-05-17T20:10:46.834Z,46.29
2023-05-17T20:13:14.808Z,46.44
2023-05-17T20:15:44.084Z,46.87
2023-05-17T20:18:12.952Z,46.89
2023-05-17T20:20:40.833Z,47.26
2023-05-17T20:23:08.792Z,47.07
2023-05-17T20:25:38.228Z,47.20
2023-05-17T20:28:06.383Z,47.50
2023-05-17T20:30:34.306Z,47.33
2023-05-17T20:33:03.758Z,47.39
2023-05-17T20:35:31.759Z,47.20
2023-05-17T20:37:59.630Z,47.52
2023-05-17T20:40:27.863Z,47.35
2023-05-17T20:42:56.559Z,47.78
2023-05-17T20:45:24.466Z,47.80
2023-05-17T20:47:52.684Z,47.92
2023-05-17T20:50:22.087Z,47.71
2023-05-17T20:52:50.041Z,47.70
2023-05-17T20:55:17.953Z,48.13
2023-05-17T20:57:46.359Z,48.14
2023-05-17T21:00:17.065Z,48.31
2023-05-17T21:02:45.081Z,47.95
2023-05-17T21:05:13.458Z,48.09
2023-05-17T21:07:42.773Z,48.34
2023-05-17T21:10:10.956Z,48.54
2023-05-17T21:12:38.873Z,48.28
2023-05-17T21:15:15.654Z,48.35
2023-05-17T21:17:44.847Z,48.42
2023-05-17T21:20:14.028Z,48.30
2023-05-17T21:22:43.332Z,48.46
2023-05-17T21:25:11.558Z,48.37
2023-05-17T21:27:39.702Z,48.37
2023-05-17T21:30:09.091Z,48.81
2023-05-17T21:32:37.091Z,48.87
2023-05-17T21:35:06.063Z,48.71
2023-05-17T21:37:33.977Z,48.72
2023-05-17T21:40:03.332Z,48.98
2023-05-17T21:42:31.242Z,48.92
2023-05-17T21:44:59.161Z,48.56
2023-05-17T21:47:27.112Z,48.90
2023-05-17T21:49:55.214Z,48.64
2023-05-17T21:52:23.137Z,48.80
2023-05-17T21:54:51.052Z,48.88
2023-05-17T21:57:21.227Z,48.63
2023-05-17T21:59:49.208Z,49.08
2023-05-17T22:02:17.342Z,48.56
2023-05-17T22:04:45.306Z,48.60
2023-05-17T22:07:14.097Z,48.68
2023-05-17T22:09:42.052Z,48.81
2023-05-17T22:12:12.216Z,48.95
2023-05-17T22:14:44.528Z,48.65
2023-05-17T22:17:12.468Z,48.57
2023-05-17T22:19:41.664Z,48.61
2023-05-17T22:22:10.202Z,48.43
2023-05-17T22:24:38.198Z,48.86
2023-05-17T22:27:06.372Z,48.72
2023-05-17T22:29:34.399Z,48.95
2023-05-17T22:32:03.788Z,48.92
2023-05-17T22:34:31.939Z,49.01
2023-05-17T22:36:59.960Z,48.96
2023-05-17T22:39:27.915Z,48.79
2023-05-17T22:41:55.844Z,48.74
2023-05-17T22:44:23.727Z,48.98
2023-05-17T22:46:51.752Z,49.29
2023-05-17T22:49:21.067Z,49.10
2023-05-17T22:51:48.955Z,49.01
2023-05-17T22:54:16.856Z,49.14
2023-05-17T22:56:44.784Z,49.33
2023-05-17T22:59:12.830Z,48.94
2023-05-17T23:01:40.923Z,49.15
2023-05-17T23:04:08.981Z,49.04
2023-05-17T23:06:38.396Z,49.44
2023-05-17T23:09:06.364Z,49.41
2023-05-17T23:11:35.496Z,49.48
2023-05-17T23:14:03.423Z,49.30
2023-05-17T23:16:31.409Z,49.43
2023-05-17T23:19:00.245Z,49.39
2023-05-17T23:21:28.194Z,49.25
2023-05-17T23:23:57.482Z,49.57
2023-05-17T23:26:25.582Z,49.54
2023-05-17T23:28:53.634Z,49.52
2023-05-17T23:31:21.733Z,49.72
2023-05-17T23:33:50.330Z,49.72
2023-05-17T23:36:18.333Z,49.55
2023-05-17T23:38:46.401Z,49.87
2023-05-17T23:41:18.202Z,49.74
2023-05-17T23:43:46.908Z,49.80
2023-05-17T23:46:19.961Z,49.51
2023-05-17T23:48:50.609Z,49.86
2023-05-17T23:51:19.874Z,49.72
2023-05-17T23:53:49.071Z,49.70
2023-05-17T23:56:18.624Z,49.55
2023-05-17T23:58:46.652Z,49.55
